Time;durP1;ratioP1;P1;durP2;ratioP2;P2;SDS_P1;SDS_P2;PMS_P1;PMS_P2;Temp;Humidity;BMP_temperature;BMP_pressure;BME280_temperature;BME280_humidity;BME280_pressure;Samples;Min_cycle;Max_cycle;Signal;HPM_P1;HPM_P2
2023/12/12 00:00:21;;;;;;;24.45;12.52;;;;;;;3.32;63.26;93579.81;5014623;28;20061;-82
2023/12/12 00:02:50;;;;;;;24.00;14.98;;;;;;;3.04;65.55;93579.72;5017499;28;20071;-82
2023/12/12 00:05:16;;;;;;;23.70;14.85;;;;;;;3.69;64.36;93554.81;5017116;28;20045;-82
2023/12/12 00:07:41;;;;;;;22.25;14.55;;;;;;;4.13;62.25;93552.81;5017054;28;20025;-81
2023/12/12 00:10:07;;;;;;;23.92;14.07;;;;;;;4.32;61.51;93550.28;5016489;28;20040;-82
2023/12/12 00:12:33;;;;;;;21.67;13.57;;;;;;;4.27;60.45;93527.41;5016907;28;20041;-82
2023/12/12 00:14:59;;;;;;;24.27;15.15;;;;;;;4.10;60.08;93490.22;5014947;28;20497;-78
2023/12/12 00:17:25;;;;;;;27.58;17.50;;;;;;;4.63;59.33;93554.16;5015802;28;20030;-81
2023/12/12 00:19:50;;;;;;;29.17;17.60;;;;;;;4.75;59.19;93543.19;5016714;28;20029;-81
2023/12/12 00:22:16;;;;;;;27.35;15.20;;;;;;;4.81;59.12;93536.78;5015561;28;20075;-80
2023/12/12 00:24:42;;;;;;;34.70;19.73;;;;;;;4.72;58.84;93535.84;5014491;28;20612;-82
2023/12/12 00:27:07;;;;;;;31.00;17.63;;;;;;;4.83;58.83;93561.03;4998970;28;20039;-82
2023/12/12 00:29:35;;;;;;;29.10;16.10;;;;;;;4.85;58.70;93548.31;5018320;28;20033;-81
2023/12/12 00:32:02;;;;;;;30.98;16.88;;;;;;;4.93;58.19;93549.56;5014237;28;20085;-81
2023/12/12 00:34:27;;;;;;;25.45;14.80;;;;;;;4.89;57.91;93546.72;5015799;28;20318;-82
2023/12/12 00:36:52;;;;;;;27.35;15.43;;;;;;;4.78;58.45;93566.34;5017182;28;20033;-81
2023/12/12 00:39:18;;;;;;;25.83;15.63;;;;;;;4.94;58.33;93572.97;5013061;28;20909;-82
2023/12/12 00:41:43;;;;;;;26.35;15.85;;;;;;;5.00;57.84;93571.84;5012352;28;20596;-82
2023/12/12 00:44:09;;;;;;;26.42;15.18;;;;;;;5.05;57.79;93579.69;5015956;28;20037;-80
2023/12/12 00:46:35;;;;;;;30.90;16.98;;;;;;;4.92;57.53;93553.25;5015077;28;20053;-80
2023/12/12 00:49:01;;;;;;;29.15;17.13;;;;;;;4.76;57.89;93559.78;5012762;28;20038;-81
2023/12/12 00:51:26;;;;;;;24.75;15.38;;;;;;;4.83;58.58;93555.75;5013913;28;20452;-82
2023/12/12 00:53:52;;;;;;;29.40;16.35;;;;;;;4.92;58.20;93551.41;5004831;28;20456;-82
2023/12/12 00:56:17;;;;;;;30.80;15.90;;;;;;;4.88;57.97;93547.78;5015047;28;20437;-81
2023/12/12 00:58:43;;;;;;;26.88;16.27;;;;;;;4.99;58.11;93566.88;5016092;28;20472;-81
2023/12/12 01:01:10;;;;;;;22.63;14.65;;;;;;;5.01;57.60;93562.88;5014657;28;20042;-82
2023/12/12 01:03:35;;;;;;;28.92;16.63;;;;;;;4.87;58.18;93550.69;5013815;28;20026;-82
2023/12/12 01:06:01;;;;;;;27.13;16.45;;;;;;;4.99;57.88;93558.97;5015202;28;20042;-80
2023/12/12 01:08:26;;;;;;;26.15;14.18;;;;;;;4.90;58.02;93556.16;5006652;28;20041;-80
2023/12/12 01:10:52;;;;;;;24.23;15.40;;;;;;;5.10;58.00;93571.72;5016681;28;20539;-80
2023/12/12 01:13:17;;;;;;;32.53;17.42;;;;;;;4.33;59.22;93569.50;5012556;28;20022;-81
2023/12/12 01:15:43;;;;;;;27.38;17.45;;;;;;;4.57;58.78;93572.91;5014557;28;20505;-81
2023/12/12 01:18:08;;;;;;;26.73;17.25;;;;;;;4.81;58.63;93602.66;5013556;28;20129;-80
2023/12/12 01:20:34;;;;;;;24.58;15.82;;;;;;;4.53;59.47;93590.34;5015738;28;20030;-80
2023/12/12 01:22:59;;;;;;;24.70;15.15;;;;;;;4.71;59.27;93581.69;5015191;28;21142;-81
2023/12/12 01:25:24;;;;;;;26.60;14.27;;;;;;;4.71;59.21;93576.44;5010100;28;20087;-82
2023/12/12 01:27:50;;;;;;;24.75;15.13;;;;;;;4.74;58.92;93573.25;5016974;28;20565;-81
2023/12/12 01:30:15;;;;;;;20.52;13.38;;;;;;;4.82;58.42;93593.69;5013294;28;20063;-82
2023/12/12 01:32:41;;;;;;;24.05;15.52;;;;;;;4.51;59.14;93584.56;5014935;28;20034;-79
2023/12/12 01:35:07;;;;;;;32.25;17.25;;;;;;;4.61;59.55;93598.41;5013952;28;20034;-81
2023/12/12 01:37:32;;;;;;;27.60;17.42;;;;;;;4.43;59.61;93603.63;5017045;28;20026;-81
2023/12/12 01:39:57;;;;;;;27.95;17.30;;;;;;;4.28;59.42;93560.56;5014569;28;20214;-82
2023/12/12 01:42:23;;;;;;;32.00;18.25;;;;;;;3.92;61.57;93576.97;5017610;28;20042;-80
2023/12/12 01:44:48;;;;;;;29.70;18.23;;;;;;;4.38;60.93;93564.19;5014645;28;20049;-82
2023/12/12 01:47:14;;;;;;;37.58;19.05;;;;;;;4.54;59.90;93540.03;5011738;28;20029;-82
2023/12/12 01:49:40;;;;;;;29.00;16.33;;;;;;;4.66;59.75;93539.63;5012681;28;20543;-82
2023/12/12 01:52:07;;;;;;;31.48;18.38;;;;;;;4.85;59.65;93521.97;5015241;28;20041;-80
2023/12/12 01:54:39;;;;;;;24.63;16.77;;;;;;;4.84;59.16;93535.47;5005838;28;20583;-82
2023/12/12 01:57:07;;;;;;;30.63;17.67;;;;;;;4.54;60.04;93544.53;5014658;28;20040;-80
2023/12/12 01:59:34;;;;;;;30.77;20.38;;;;;;;3.64;62.74;93531.97;5012959;28;20979;-80
2023/12/12 02:02:00;;;;;;;31.27;19.77;;;;;;;4.11;61.93;93528.63;5015456;28;20051;-81
2023/12/12 02:04:26;;;;;;;29.58;19.42;;;;;;;4.50;60.65;93551.41;5007177;28;20923;-81
2023/12/12 02:06:55;;;;;;;29.02;19.10;;;;;;;4.66;60.12;93561.47;5014460;28;20464;-82
2023/12/12 02:09:21;;;;;;;30.05;19.55;;;;;;;4.65;59.68;93548.56;5013624;28;20033;-78
2023/12/12 02:11:46;;;;;;;35.75;19.92;;;;;;;4.93;59.58;93592.50;5009474;28;20041;-81
2023/12/12 02:14:12;;;;;;;30.23;18.38;;;;;;;4.81;59.41;93591.34;5013138;28;20099;-82
2023/12/12 02:16:38;;;;;;;33.55;20.08;;;;;;;4.65;60.31;93590.72;5025291;28;20029;-81
2023/12/12 02:19:04;;;;;;;29.38;19.55;;;;;;;4.46;60.58;93574.88;5011820;28;20035;-81
2023/12/12 02:21:30;;;;;;;32.47;21.60;;;;;;;4.19;61.13;93556.97;5012759;28;20033;-80
2023/12/12 02:23:55;;;;;;;34.08;22.05;;;;;;;4.44;60.85;93557.81;5008206;28;20184;-80
2023/12/12 02:26:21;;;;;;;36.65;22.98;;;;;;;3.85;62.28;93577.31;5013782;28;20072;-81
2023/12/12 02:28:46;;;;;;;38.08;23.63;;;;;;;3.96;62.91;93573.53;5011832;28;20103;-81
2023/12/12 02:31:13;;;;;;;36.85;24.30;;;;;;;4.27;61.52;93577.41;5015516;28;20053;-81
2023/12/12 02:33:38;;;;;;;38.90;25.65;;;;;;;3.95;62.82;93587.75;5011606;28;20493;-80
2023/12/12 02:36:04;;;;;;;60.05;32.72;;;;;;;3.96;63.07;93584.06;5012569;28;20056;-80
2023/12/12 02:38:30;;;;;;;54.80;28.40;;;;;;;4.26;62.28;93589.00;5024525;28;20034;-81
2023/12/12 02:40:55;;;;;;;56.95;32.92;;;;;;;4.37;61.31;93589.72;5011082;28;20029;-81
2023/12/12 02:43:21;;;;;;;56.03;34.25;;;;;;;3.92;62.93;93590.13;5014962;28;20512;-81
2023/12/12 02:45:47;;;;;;;57.40;34.10;;;;;;;4.16;61.97;93597.00;5015556;28;20180;-81
2023/12/12 02:48:12;;;;;;;56.15;31.75;;;;;;;4.06;62.00;93625.28;5016115;28;20037;-81
2023/12/12 02:50:37;;;;;;;50.67;32.40;;;;;;;3.86;63.47;93615.72;5011196;28;20152;-80
2023/12/12 02:53:03;;;;;;;51.30;32.90;;;;;;;3.61;64.80;93634.31;5012420;28;20725;-82
2023/12/12 02:55:28;;;;;;;49.95;32.00;;;;;;;4.10;63.13;93648.13;5015376;28;20577;-80
2023/12/12 02:57:54;;;;;;;55.25;31.48;;;;;;;4.21;62.49;93633.00;5014324;28;20040;-81
2023/12/12 03:00:19;;;;;;;54.38;29.85;;;;;;;4.22;61.85;93603.78;5012492;28;20052;-81
2023/12/12 03:02:45;;;;;;;50.90;30.27;;;;;;;4.25;61.92;93587.47;5008315;28;20041;-80
2023/12/12 03:05:10;;;;;;;49.05;27.08;;;;;;;4.06;62.49;93583.19;5011347;28;20091;-81
2023/12/12 03:07:36;;;;;;;47.70;29.55;;;;;;;3.99;63.17;93588.75;5013056;28;20072;-81
2023/12/12 03:10:01;;;;;;;43.03;27.75;;;;;;;4.06;62.69;93562.88;5013603;28;21365;-79
2023/12/12 03:12:26;;;;;;;44.55;27.88;;;;;;;3.21;65.83;93546.75;5013267;28;20391;-80
2023/12/12 03:14:52;;;;;;;45.80;28.55;;;;;;;3.54;65.89;93570.69;5013501;28;20116;-81
2023/12/12 03:17:17;;;;;;;44.22;27.77;;;;;;;3.83;64.50;93563.63;5011193;28;20041;-80
2023/12/12 03:19:43;;;;;;;45.33;27.88;;;;;;;4.05;63.48;93566.59;5009260;28;20468;-80
2023/12/12 03:22:08;;;;;;;48.47;28.02;;;;;;;4.15;63.07;93558.59;5010142;28;20046;-81
2023/12/12 03:24:34;;;;;;;45.40;27.80;;;;;;;4.24;62.61;93558.78;4992355;28;20049;-82
2023/12/12 03:26:59;;;;;;;44.15;29.05;;;;;;;4.36;62.26;93571.56;4993474;28;20117;-82
2023/12/12 03:29:25;;;;;;;42.78;28.45;;;;;;;4.22;62.86;93561.66;4998062;28;20052;-81
2023/12/12 03:31:50;;;;;;;55.45;30.55;;;;;;;3.87;64.22;93559.38;5014386;28;20029;-80
2023/12/12 03:34:16;;;;;;;47.38;30.98;;;;;;;4.11;63.23;93554.94;5018407;28;20207;-83
2023/12/12 03:36:42;;;;;;;52.60;32.22;;;;;;;4.00;63.70;93579.81;5014935;28;20220;-80
2023/12/12 03:39:08;;;;;;;45.95;30.38;;;;;;;3.45;65.26;93527.66;5018638;28;20071;-81
2023/12/12 03:41:34;;;;;;;50.35;31.67;;;;;;;3.16;67.19;93569.66;5015897;28;20033;-81
2023/12/12 03:43:59;;;;;;;51.17;30.58;;;;;;;3.61;66.20;93566.72;5018815;28;20033;-82
2023/12/12 03:46:25;;;;;;;44.80;30.63;;;;;;;3.81;64.67;93560.50;5014600;28;20369;-79
2023/12/12 03:48:50;;;;;;;46.67;28.80;;;;;;;2.95;67.28;93563.72;5015687;28;20330;-82
2023/12/12 03:51:16;;;;;;;50.05;28.13;;;;;;;3.02;67.87;93590.50;5011729;28;20037;-81
2023/12/12 03:53:41;;;;;;;39.10;26.77;;;;;;;3.50;66.10;93580.22;5017792;28;20025;-81
2023/12/12 03:56:07;;;;;;;50.22;29.17;;;;;;;3.30;66.08;93571.41;5013607;28;20034;-80
2023/12/12 03:58:33;;;;;;;43.83;27.85;;;;;;;2.90;67.91;93561.91;5017514;28;20064;-80
2023/12/12 04:00:59;;;;;;;43.38;25.15;;;;;;;3.37;66.96;93585.03;5016243;28;20148;-81
2023/12/12 04:03:24;;;;;;;45.30;25.98;;;;;;;3.13;67.41;93602.53;5015795;28;20034;-83
2023/12/12 04:05:50;;;;;;;39.25;23.55;;;;;;;2.43;69.91;93572.13;5015232;28;20037;-80
2023/12/12 04:08:16;;;;;;;35.10;23.75;;;;;;;3.16;67.97;93591.47;5013589;28;20029;-82
2023/12/12 04:10:41;;;;;;;36.05;20.70;;;;;;;2.66;68.86;93589.09;5006068;28;20033;-80
2023/12/12 04:13:07;;;;;;;35.25;22.02;;;;;;;2.95;67.37;93600.50;5009987;28;20064;-81
2023/12/12 04:15:32;;;;;;;37.05;22.45;;;;;;;2.06;70.70;93588.19;5017910;28;20080;-82
2023/12/12 04:17:58;;;;;;;32.63;22.00;;;;;;;2.58;69.75;93608.81;5016526;28;20076;-81
2023/12/12 04:20:24;;;;;;;36.35;24.13;;;;;;;1.95;71.39;93611.06;5013992;28;20063;-82
2023/12/12 04:22:49;;;;;;;35.05;22.48;;;;;;;2.64;69.84;93641.09;5017950;28;20054;-81
2023/12/12 04:25:15;;;;;;;38.60;22.77;;;;;;;2.40;69.96;93631.16;5017014;28;20064;-80
2023/12/12 04:27:40;;;;;;;32.95;20.40;;;;;;;1.89;72.08;93624.44;5016095;28;20785;-80
2023/12/12 04:30:06;;;;;;;30.17;19.48;;;;;;;2.41;71.27;93629.31;5014829;28;20061;-79
2023/12/12 04:32:32;;;;;;;27.33;17.60;;;;;;;2.44;70.19;93608.59;5017184;28;20065;-80
2023/12/12 04:35:01;;;;;;;28.58;18.85;;;;;;;3.09;68.10;93648.78;5017928;28;20959;-80
2023/12/12 04:37:26;;;;;;;32.40;19.52;;;;;;;3.15;67.27;93620.63;5004868;28;20025;-81
2023/12/12 04:39:52;;;;;;;25.33;17.30;;;;;;;3.13;66.68;93623.56;5011751;28;20513;-80
2023/12/12 04:42:18;;;;;;;35.63;18.17;;;;;;;3.21;66.56;93644.00;5017219;28;20033;-79
2023/12/12 04:44:43;;;;;;;27.85;17.35;;;;;;;3.53;65.96;93629.59;5014646;28;20068;-81
2023/12/12 04:47:09;;;;;;;26.13;17.05;;;;;;;3.29;65.73;93611.09;5018017;28;20041;-81
2023/12/12 04:49:35;;;;;;;26.05;15.30;;;;;;;3.44;65.30;93623.34;5014705;28;20202;-81
2023/12/12 04:52:01;;;;;;;28.40;15.90;;;;;;;3.68;64.31;93635.56;5017048;28;20038;-81
2023/12/12 04:54:27;;;;;;;24.70;15.65;;;;;;;3.69;64.13;93638.97;5017556;28;20108;-82
2023/12/12 04:56:52;;;;;;;24.05;15.70;;;;;;;3.49;64.24;93608.34;5012262;28;20047;-81
2023/12/12 04:59:18;;;;;;;26.90;16.25;;;;;;;3.58;64.96;93629.56;5015344;28;20582;-81
2023/12/12 05:01:43;;;;;;;28.40;18.00;;;;;;;3.52;64.28;93630.69;5013929;28;20031;-82
2023/12/12 05:04:09;;;;;;;30.40;15.55;;;;;;;3.28;65.69;93664.75;5013849;28;20048;-81
2023/12/12 05:06:34;;;;;;;25.88;16.58;;;;;;;3.35;65.00;93631.84;5016872;28;20041;-80
2023/12/12 05:09:00;;;;;;;33.67;16.73;;;;;;;3.01;65.11;93641.47;5006616;28;20734;-81
2023/12/12 05:11:25;;;;;;;29.88;17.40;;;;;;;3.24;66.55;93656.59;5014608;28;20101;-81
2023/12/12 05:13:51;;;;;;;29.13;16.70;;;;;;;3.54;65.15;93662.72;5003854;28;20025;-81
2023/12/12 05:16:16;;;;;;;24.88;16.08;;;;;;;3.36;64.79;93648.38;5016445;28;20028;-80
2023/12/12 05:18:42;;;;;;;27.17;15.55;;;;;;;3.44;65.46;93658.31;5013865;28;20029;-80
2023/12/12 05:21:07;;;;;;;23.90;16.38;;;;;;;3.66;64.71;93689.50;5011490;28;20081;-77
2023/12/12 05:23:33;;;;;;;25.48;16.65;;;;;;;3.57;64.28;93652.47;5011618;28;20993;-82
2023/12/12 05:25:58;;;;;;;26.63;15.90;;;;;;;4.08;63.11;93689.72;5016426;28;20068;-81
2023/12/12 05:28:23;;;;;;;29.65;16.55;;;;;;;3.68;63.50;93682.91;5011840;28;20427;-81
2023/12/12 05:30:49;;;;;;;26.13;17.42;;;;;;;3.88;62.30;93675.91;5015119;28;20359;-81
2023/12/12 05:33:14;;;;;;;27.60;16.60;;;;;;;3.92;62.92;93650.63;5009669;28;20401;-81
2023/12/12 05:35:40;;;;;;;31.25;18.38;;;;;;;4.22;62.47;93669.59;5016328;28;20175;-81
2023/12/12 05:38:06;;;;;;;41.90;20.90;;;;;;;4.04;62.36;93665.03;5009173;28;20124;-78
2023/12/12 05:40:32;;;;;;;32.78;19.55;;;;;;;4.26;62.24;93661.94;5016362;28;20025;-81
2023/12/12 05:42:58;;;;;;;35.85;19.65;;;;;;;4.30;61.98;93656.94;5014236;28;20033;-80
2023/12/12 05:45:24;;;;;;;30.48;18.40;;;;;;;4.25;62.18;93650.63;5013324;28;20405;-80
2023/12/12 05:47:49;;;;;;;25.65;17.55;;;;;;;4.28;61.35;93655.34;5014995;28;20045;-80
2023/12/12 05:50:15;;;;;;;28.77;17.48;;;;;;;4.43;61.79;93677.34;5009173;28;20030;-80
2023/12/12 05:52:41;;;;;;;29.10;16.58;;;;;;;4.21;61.14;93622.47;5015591;28;20119;-80
2023/12/12 05:55:08;;;;;;;33.75;18.58;;;;;;;4.44;60.97;93653.38;5016762;28;20030;-80
2023/12/12 05:57:35;;;;;;;29.42;17.67;;;;;;;4.46;61.23;93671.50;5015853;28;20033;-78
2023/12/12 06:00:03;;;;;;;32.13;19.40;;;;;;;4.56;61.18;93693.28;5016900;28;21031;-80
2023/12/12 06:02:29;;;;;;;32.60;19.08;;;;;;;4.64;60.93;93699.81;5014882;28;20066;-81
2023/12/12 06:04:54;;;;;;;33.78;18.23;;;;;;;4.52;61.41;93680.94;5015189;28;20477;-80
2023/12/12 06:07:20;;;;;;;39.72;22.13;;;;;;;4.72;61.05;93693.94;5013244;28;20388;-81
2023/12/12 06:09:45;;;;;;;73.55;43.92;;;;;;;4.74;60.88;93673.38;5015783;28;20528;-81
2023/12/12 06:12:11;;;;;;;66.15;37.03;;;;;;;4.83;61.03;93669.06;5012881;28;20451;-80
2023/12/12 06:14:36;;;;;;;81.55;47.63;;;;;;;5.02;60.60;93683.06;5014863;28;20038;-81
2023/12/12 06:17:06;;;;;;;63.95;37.75;;;;;;;4.88;60.19;93690.06;5012467;28;20036;-80
2023/12/12 06:19:32;;;;;;;59.47;36.03;;;;;;;4.71;61.15;93671.28;5016326;28;20017;-81
2023/12/12 06:21:57;;;;;;;51.47;30.63;;;;;;;5.07;60.71;93682.22;5011957;28;20785;-82
2023/12/12 06:24:23;;;;;;;47.15;28.02;;;;;;;5.14;60.28;93687.91;5013227;28;20061;-81
2023/12/12 06:26:49;;;;;;;36.90;21.45;;;;;;;5.25;59.92;93678.84;5009818;28;20619;-81
2023/12/12 06:29:14;;;;;;;44.08;25.52;;;;;;;5.25;59.22;93660.38;5010468;28;20045;-81
2023/12/12 06:31:40;;;;;;;33.28;21.17;;;;;;;5.29;59.02;93658.72;5012900;28;20490;-80
2023/12/12 06:34:07;;;;;;;28.40;18.67;;;;;;;5.31;59.08;93637.38;5009791;28;20021;-81
2023/12/12 06:36:33;;;;;;;27.48;16.77;;;;;;;5.23;58.63;93638.00;5014246;28;20626;-81
2023/12/12 06:38:58;;;;;;;26.02;14.63;;;;;;;4.64;60.85;93631.31;5014883;28;20641;-81
2023/12/12 06:41:24;;;;;;;27.02;14.85;;;;;;;4.72;61.15;93657.03;5011770;28;20046;-80
2023/12/12 06:43:50;;;;;;;26.52;18.08;;;;;;;3.62;65.57;93662.19;5004838;28;20029;-78
2023/12/12 06:46:18;;;;;;;38.33;20.55;;;;;;;4.34;64.21;93682.44;5014999;28;20030;-81
2023/12/12 06:48:44;;;;;;;36.80;22.55;;;;;;;4.38;62.53;93685.28;5011888;28;20030;-82
2023/12/12 06:51:09;;;;;;;54.38;25.58;;;;;;;3.62;65.65;93704.25;5011451;28;20049;-80
2023/12/12 06:53:36;;;;;;;35.80;24.27;;;;;;;3.84;66.13;93699.38;5014876;28;20038;-82
2023/12/12 06:56:02;;;;;;;57.28;31.40;;;;;;;4.34;64.11;93694.81;5014973;28;20559;-79
2023/12/12 06:58:28;;;;;;;39.72;25.08;;;;;;;4.59;62.11;93698.00;5015645;28;20495;-82
2023/12/12 07:00:55;;;;;;;45.05;24.67;;;;;;;4.66;63.10;93727.44;5013330;28;20048;-83
2023/12/12 07:03:24;;;;;;;42.90;23.02;;;;;;;4.88;63.14;93728.81;5028628;28;20427;-82
2023/12/12 07:05:52;;;;;;;38.72;21.77;;;;;;;5.03;61.42;93729.44;5028253;28;20041;-82
2023/12/12 07:08:19;;;;;;;33.33;20.27;;;;;;;5.20;60.40;93736.09;5021802;28;20729;-83
2023/12/12 07:10:45;;;;;;;40.38;21.77;;;;;;;5.12;59.48;93719.84;5029605;28;20067;-82
2023/12/12 07:13:12;;;;;;;28.52;18.35;;;;;;;5.44;59.29;93745.56;5028919;28;20436;-82
2023/12/12 07:15:38;;;;;;;32.13;17.40;;;;;;;5.66;58.65;93747.69;5029777;28;21156;-83
2023/12/12 07:18:10;;;;;;;33.78;19.42;;;;;;;5.73;58.17;93737.56;5028328;28;20083;-80
2023/12/12 07:20:36;;;;;;;28.40;18.33;;;;;;;5.88;57.06;93744.50;5029570;28;20472;-82
2023/12/12 07:23:03;;;;;;;33.67;18.35;;;;;;;5.74;57.05;93725.16;5031673;28;20056;-80
2023/12/12 07:25:29;;;;;;;32.10;18.98;;;;;;;5.78;57.55;93715.59;5031147;28;20103;-80
2023/12/12 07:27:54;;;;;;;29.98;19.08;;;;;;;5.87;57.55;93712.03;5026717;28;20038;-81
2023/12/12 07:30:20;;;;;;;30.52;18.92;;;;;;;5.51;57.83;93714.38;5017696;28;20372;-81
2023/12/12 07:32:46;;;;;;;32.13;19.20;;;;;;;5.66;58.43;93721.31;5015287;28;20638;-79
2023/12/12 07:35:12;;;;;;;30.67;19.42;;;;;;;5.91;57.16;93707.78;5018770;28;20395;-81
2023/12/12 07:37:38;;;;;;;28.70;17.50;;;;;;;5.99;57.20;93725.59;5016443;28;20285;-81
2023/12/12 07:40:06;;;;;;;32.60;19.20;;;;;;;6.19;57.05;93724.53;5013861;28;20029;-81
2023/12/12 07:42:32;;;;;;;33.30;17.80;;;;;;;6.36;56.41;93713.47;5009354;28;20056;-81
2023/12/12 07:44:58;;;;;;;33.20;18.48;;;;;;;6.46;55.74;93699.31;5004476;28;20485;-79
2023/12/12 07:47:27;;;;;;;35.15;20.60;;;;;;;6.27;56.31;93694.03;5010509;28;20039;-81
2023/12/12 07:49:52;;;;;;;50.80;22.45;;;;;;;5.88;57.06;93697.75;5006413;28;20029;-80
2023/12/12 07:52:18;;;;;;;38.47;20.25;;;;;;;5.45;58.77;93683.84;5009501;28;20043;-81
2023/12/12 07:54:44;;;;;;;37.42;20.50;;;;;;;5.78;58.43;93734.84;5018440;28;20937;-80
2023/12/12 07:57:09;;;;;;;37.38;20.80;;;;;;;5.82;59.01;93711.34;5011610;28;20265;-79
2023/12/12 07:59:36;;;;;;;41.58;19.65;;;;;;;6.08;57.76;93727.59;5009463;28;20575;-79
2023/12/12 08:02:02;;;;;;;44.38;21.10;;;;;;;5.96;57.87;93725.38;5008472;28;20970;-80
2023/12/12 08:04:28;;;;;;;35.65;21.35;;;;;;;5.99;57.87;93728.22;5008938;28;20128;-81
2023/12/12 08:06:54;;;;;;;35.90;20.90;;;;;;;5.91;58.14;93728.09;5003343;28;20624;-81
2023/12/12 08:09:20;;;;;;;29.33;20.40;;;;;;;5.87;58.58;93721.81;5006138;28;20179;-79
2023/12/12 08:11:46;;;;;;;38.47;21.75;;;;;;;5.74;58.74;93720.66;5005869;28;20037;-81
2023/12/12 08:14:11;;;;;;;41.33;21.73;;;;;;;6.05;58.77;93715.75;5008680;28;20040;-81
2023/12/12 08:16:37;;;;;;;32.97;20.35;;;;;;;6.40;58.26;93709.16;5005130;28;20034;-81
2023/12/12 08:19:02;;;;;;;39.30;21.10;;;;;;;5.96;58.63;93715.63;5007103;28;20169;-81
2023/12/12 08:21:28;;;;;;;40.63;25.83;;;;;;;5.71;59.13;93708.06;5005406;28;20034;-79
2023/12/12 08:23:54;;;;;;;35.33;21.35;;;;;;;5.77;59.91;93712.19;5009184;28;20044;-79
2023/12/12 08:26:22;;;;;;;39.08;22.48;;;;;;;6.12;59.71;93707.44;5004259;28;20065;-80
2023/12/12 08:28:48;;;;;;;40.28;22.15;;;;;;;6.54;58.74;93712.63;5006847;28;20220;-79
2023/12/12 08:31:13;;;;;;;32.38;18.85;;;;;;;6.80;57.87;93703.19;5008517;28;20036;-81
2023/12/12 08:33:40;;;;;;;35.38;19.63;;;;;;;7.01;57.54;93708.09;5001023;28;20033;-79
2023/12/12 08:36:08;;;;;;;34.33;19.30;;;;;;;6.82;56.98;93698.41;5007897;28;20053;-79
2023/12/12 08:38:33;;;;;;;36.95;19.08;;;;;;;6.59;57.12;93699.34;5007669;28;20133;-78
2023/12/12 08:40:59;;;;;;;34.95;18.95;;;;;;;6.40;57.58;93682.75;5007758;28;20197;-81
2023/12/12 08:43:25;;;;;;;32.60;18.65;;;;;;;6.60;57.63;93690.34;5008092;28;20478;-81
2023/12/12 08:45:52;;;;;;;33.17;19.02;;;;;;;6.52;58.07;93701.56;5005633;28;20044;-78
2023/12/12 08:48:18;;;;;;;32.75;18.30;;;;;;;6.54;58.43;93688.06;5006113;28;20447;-80
2023/12/12 08:50:44;;;;;;;29.48;18.15;;;;;;;6.84;57.83;93698.91;5006088;28;20048;-80
2023/12/12 08:53:10;;;;;;;43.72;20.88;;;;;;;7.43;56.30;93721.06;5004003;28;20184;-81
2023/12/12 08:55:36;;;;;;;33.80;18.73;;;;;;;7.17;56.30;93715.47;5006925;28;20072;-79
2023/12/12 08:58:01;;;;;;;37.83;19.50;;;;;;;7.20;56.29;93714.88;5006045;28;20548;-80
2023/12/12 09:00:27;;;;;;;34.70;16.90;;;;;;;7.12;56.81;93720.06;5039804;28;20421;-80
2023/12/12 09:02:52;;;;;;;32.72;18.00;;;;;;;7.33;56.52;93717.81;5008070;28;20079;-80
2023/12/12 09:05:18;;;;;;;36.22;18.45;;;;;;;7.31;55.70;93707.53;5007544;28;20517;-81
2023/12/12 09:07:44;;;;;;;41.78;19.55;;;;;;;6.95;57.03;93728.56;5007266;28;20032;-80
2023/12/12 09:10:10;;;;;;;32.00;17.35;;;;;;;7.07;56.45;93725.44;5006871;28;20033;-80
2023/12/12 09:12:35;;;;;;;42.50;19.30;;;;;;;6.52;57.68;93712.13;5008436;28;20131;-80
2023/12/12 09:15:01;;;;;;;38.65;20.88;;;;;;;6.55;57.98;93718.72;5008234;28;20200;-81
2023/12/12 09:17:27;;;;;;;41.97;20.25;;;;;;;7.13;56.99;93721.63;5006429;28;20076;-81
2023/12/12 09:19:53;;;;;;;37.35;17.83;;;;;;;6.86;56.80;93728.44;5010115;28;20503;-80
2023/12/12 09:22:19;;;;;;;35.00;18.90;;;;;;;6.69;56.68;93706.31;5010622;28;20021;-80
2023/12/12 09:24:44;;;;;;;35.47;16.58;;;;;;;6.62;57.68;93711.97;5001235;28;20048;-80
2023/12/12 09:27:10;;;;;;;37.80;15.90;;;;;;;7.18;57.24;93726.84;5007492;28;20582;-84
2023/12/12 09:29:35;;;;;;;17.45;8.63;;;;;;;7.42;55.38;93702.81;5009737;28;20037;-79
2023/12/12 09:32:01;;;;;;;22.10;10.10;;;;;;;7.39;55.98;93708.69;5010488;28;20788;-81
2023/12/12 09:34:26;;;;;;;16.83;7.15;;;;;;;7.36;55.90;93698.69;5006485;28;20025;-81
2023/12/12 09:36:52;;;;;;;4.72;2.30;;;;;;;7.56;55.05;93700.94;5003987;28;20523;-81
2023/12/12 09:39:18;;;;;;;7.18;3.08;;;;;;;7.59;54.29;93709.06;5006519;28;20080;-80
2023/12/12 09:41:46;;;;;;;2.85;2.05;;;;;;;7.65;54.71;93710.53;5004289;28;20049;-80
2023/12/12 09:44:15;;;;;;;4.50;1.65;;;;;;;7.63;53.76;93686.22;5021389;28;20328;-79
2023/12/12 09:46:42;;;;;;;2.13;1.48;;;;;;;7.75;53.36;93700.84;5005066;28;20198;-80
2023/12/12 09:49:11;;;;;;;5.10;2.13;;;;;;;7.60;54.59;93700.06;5007461;28;20056;-80
2023/12/12 09:51:43;;;;;;;4.03;1.70;;;;;;;7.48;54.43;93661.97;5011108;28;20033;-78
2023/12/12 09:54:11;;;;;;;4.13;2.03;;;;;;;7.87;54.37;93687.88;5007990;28;20053;-81
2023/12/12 09:56:37;;;;;;;3.60;1.83;;;;;;;8.04;53.33;93682.72;5007864;28;20631;-81
2023/12/12 09:59:04;;;;;;;1.20;1.00;;;;;;;8.13;53.41;93673.75;5012185;28;20037;-78
2023/12/12 10:01:33;;;;;;;4.10;1.73;;;;;;;8.04;52.92;93677.41;5011773;28;20484;-80
2023/12/12 10:04:06;;;;;;;1.75;1.15;;;;;;;8.09;52.96;93679.94;5002987;28;20068;-79
2023/12/12 10:06:45;;;;;;;3.10;1.40;;;;;;;8.01;52.70;93673.50;5000597;28;20639;-81
2023/12/12 10:09:11;;;;;;;3.00;1.20;;;;;;;8.18;51.94;93680.00;5001084;28;20084;-82
2023/12/12 10:11:36;;;;;;;1.52;1.10;;;;;;;8.20;52.02;93681.28;5004770;28;20405;-80
2023/12/12 10:14:03;;;;;;;2.53;1.63;;;;;;;8.03;51.86;93663.38;5004102;28;20029;-78
2023/12/12 10:16:30;;;;;;;2.42;1.48;;;;;;;8.21;51.85;93669.59;5006138;28;20654;-81
2023/12/12 10:19:01;;;;;;;3.25;1.30;;;;;;;8.42;51.43;93678.63;5008187;28;20170;-81
2023/12/12 10:21:27;;;;;;;3.35;1.70;;;;;;;8.40;51.35;93686.09;5003750;28;20037;-81
2023/12/12 10:23:54;;;;;;;2.50;2.05;;;;;;;8.39;51.41;93689.84;5002828;28;20045;-80
2023/12/12 10:26:37;;;;;;;3.22;1.98;;;;;;;8.45;50.94;93688.63;4998283;28;20112;-81
2023/12/12 10:29:03;;;;;;;3.15;2.08;;;;;;;8.64;51.65;93706.22;5005214;28;20779;-80
2023/12/12 10:31:29;;;;;;;5.45;2.83;;;;;;;8.58;50.98;93687.78;5004076;28;20596;-81
2023/12/12 10:33:57;;;;;;;3.05;2.03;;;;;;;8.59;50.83;93704.47;4999208;28;20037;-79
2023/12/12 10:36:24;;;;;;;2.65;1.95;;;;;;;8.44;50.66;93665.84;5003682;28;20049;-80
2023/12/12 10:38:50;;;;;;;3.20;2.20;;;;;;;8.40;51.39;93659.59;5005637;28;20037;-79
2023/12/12 10:41:17;;;;;;;2.80;1.92;;;;;;;8.78;51.30;93691.00;5006630;28;20059;-78
2023/12/12 10:43:44;;;;;;;10.00;5.85;;;;;;;8.83;50.96;93678.41;5010581;28;20147;-79
2023/12/12 10:46:14;;;;;;;4.70;3.03;;;;;;;8.82;51.25;93687.44;5006879;28;20405;-78
2023/12/12 10:48:47;;;;;;;4.57;2.42;;;;;;;8.86;51.09;93682.28;5004450;28;20034;-79
2023/12/12 10:51:15;;;;;;;3.90;2.25;;;;;;;8.95;50.33;93693.75;4987260;28;20042;-79
2023/12/12 10:53:42;;;;;;;5.10;2.70;;;;;;;8.75;51.25;93688.97;4988412;28;20038;-79
2023/12/12 10:56:10;;;;;;;2.65;2.33;;;;;;;8.81;50.74;93695.69;4991718;28;20076;-77
2023/12/12 10:58:37;;;;;;;1.95;1.70;;;;;;;8.81;51.17;93712.38;5009690;28;20018;-78
2023/12/12 11:01:03;;;;;;;4.05;2.60;;;;;;;8.84;51.23;93689.78;5007620;28;20302;-79
2023/12/12 11:03:30;;;;;;;11.82;2.55;;;;;;;8.67;52.19;93706.38;5019463;28;20021;-78
2023/12/12 11:05:58;;;;;;;9.05;3.25;;;;;;;8.75;52.31;93707.53;5006290;28;20051;-80
2023/12/12 11:08:25;;;;;;;10.80;3.30;;;;;;;8.65;51.61;93686.56;5007234;28;20091;-80
2023/12/12 11:10:52;;;;;;;8.77;3.10;;;;;;;8.67;51.85;93708.25;5022747;28;20575;-80
2023/12/12 11:13:20;;;;;;;9.05;4.60;;;;;;;8.40;52.68;93715.25;5007719;28;20047;-80
2023/12/12 11:15:46;;;;;;;10.02;4.32;;;;;;;8.25;53.17;93706.88;5005011;28;20463;-81
2023/12/12 11:18:15;;;;;;;8.02;3.90;;;;;;;8.04;53.37;93688.78;5021379;28;20437;-81
2023/12/12 11:20:42;;;;;;;9.95;4.45;;;;;;;8.16;53.65;93690.91;5008078;28;20118;-80